OAL710 LEBA-LPCS
Flight info
| Callsign | OAL710 |
|---|---|
| Flight time | 1h 31m |
| Altitude | 4500 |
| Route | WHISKY HOMACHUELOS RIOVIAR MONASTERIO FREGENAL MOURAO MAXED VALVE PINHEIRO SETUBAL FONTEDATELHA COVADOVAPOR CHARLE |
| Aircraft | BE36/L-BDFGLORY/S |
Departure
| Time | 2026-05-06 18:55 |
|---|---|
| Airport | Córdoba Airport (LEBA) |
Arrival
| Time | 2026-05-06 20:26 |
|---|---|
| Airport | Cascais Airport (LPCS) |
| Time | Latitude | Longitude | Altitude | Speed | Heading |
|---|---|---|---|---|---|
| 2026-05-06 18:43 | 37.84572 | -4.84424 | 305 ft | 0 kts | 308° |
| 2026-05-06 18:50 | 37.84572 | -4.84425 | 305 ft | 1 kts | 314° |
| 2026-05-06 18:50 | 37.84569 | -4.84411 | 304 ft | 11 kts | 197° |
| 2026-05-06 18:50 | 37.84551 | -4.84431 | 304 ft | 0 kts | 225° |
| 2026-05-06 18:51 | 37.84516 | -4.84463 | 303 ft | 14 kts | 208° |
| 2026-05-06 18:51 | 37.84506 | -4.84468 | 303 ft | 2 kts | 201° |
| 2026-05-06 18:51 | 37.84492 | -4.84517 | 303 ft | 7 kts | 286° |
| 2026-05-06 18:51 | 37.84500 | -4.84565 | 302 ft | 6 kts | 313° |
| 2026-05-06 18:52 | 37.84532 | -4.84606 | 302 ft | 7 kts | 314° |
| 2026-05-06 18:52 | 37.84575 | -4.84633 | 302 ft | 8 kts | 20° |
| 2026-05-06 18:52 | 37.84637 | -4.84590 | 301 ft | 8 kts | 30° |
| 2026-05-06 18:52 | 37.84691 | -4.84551 | 302 ft | 12 kts | 30° |
| 2026-05-06 18:53 | 37.84755 | -4.84503 | 301 ft | 13 kts | 30° |
| 2026-05-06 18:53 | 37.84835 | -4.84445 | 301 ft | 14 kts | 28° |
| 2026-05-06 18:53 | 37.84921 | -4.84386 | 300 ft | 14 kts | 30° |
| 2026-05-06 18:53 | 37.84987 | -4.84340 | 303 ft | 8 kts | 28° |
| 2026-05-06 18:54 | 37.85086 | -4.84273 | 300 ft | 25 kts | 29° |
| 2026-05-06 18:54 | 37.85156 | -4.84220 | 302 ft | 10 kts | 25° |
| 2026-05-06 18:54 | 37.85184 | -4.84186 | 303 ft | 6 kts | 271° |
| 2026-05-06 18:54 | 37.85144 | -4.84227 | 301 ft | 14 kts | 210° |
| 2026-05-06 18:55 | 37.84831 | -4.84454 | 320 ft | 93 kts | 208° |
| 2026-05-06 18:55 | 37.84105 | -4.84859 | 667 ft | 129 kts | 199° |
| 2026-05-06 18:55 | 37.83294 | -4.85257 | 1479 ft | 122 kts | 203° |
| 2026-05-06 18:55 | 37.82471 | -4.85713 | 2033 ft | 142 kts | 204° |
| 2026-05-06 18:56 | 37.81529 | -4.86268 | 2234 ft | 152 kts | 207° |
| 2026-05-06 18:56 | 37.80603 | -4.86911 | 2398 ft | 154 kts | 220° |
| 2026-05-06 18:56 | 37.80158 | -4.88149 | 2554 ft | 163 kts | 268° |
| 2026-05-06 18:56 | 37.80324 | -4.89589 | 2774 ft | 167 kts | 278° |
| 2026-05-06 18:57 | 37.80525 | -4.91039 | 2980 ft | 167 kts | 278° |
| 2026-05-06 18:57 | 37.80731 | -4.92488 | 3180 ft | 168 kts | 278° |
| 2026-05-06 18:57 | 37.80938 | -4.93946 | 3378 ft | 168 kts | 278° |
| 2026-05-06 18:57 | 37.81156 | -4.95400 | 3577 ft | 168 kts | 279° |
| 2026-05-06 18:58 | 37.81424 | -4.96837 | 3773 ft | 167 kts | 279° |
| 2026-05-06 18:58 | 37.81514 | -4.98291 | 3974 ft | 166 kts | 263° |
| 2026-05-06 18:58 | 37.81292 | -4.99719 | 4174 ft | 166 kts | 255° |
| 2026-05-06 18:58 | 37.81009 | -5.01132 | 4378 ft | 166 kts | 255° |
| 2026-05-06 18:59 | 37.80781 | -5.02582 | 4468 ft | 174 kts | 268° |
| 2026-05-06 18:59 | 37.80960 | -5.04120 | 4474 ft | 179 kts | 277° |
| 2026-05-06 18:59 | 37.81140 | -5.05670 | 4479 ft | 172 kts | 276° |
| 2026-05-06 18:59 | 37.81300 | -5.07107 | 4472 ft | 166 kts | 276° |
| 2026-05-06 19:00 | 37.81462 | -5.08557 | 4470 ft | 167 kts | 276° |
| 2026-05-06 19:00 | 37.81629 | -5.10009 | 4472 ft | 167 kts | 277° |
| 2026-05-06 19:00 | 37.81796 | -5.11466 | 4474 ft | 167 kts | 277° |
| 2026-05-06 19:00 | 37.81964 | -5.12924 | 4476 ft | 168 kts | 277° |
| 2026-05-06 19:01 | 37.82131 | -5.14389 | 4480 ft | 169 kts | 276° |
| 2026-05-06 19:01 | 37.82299 | -5.15858 | 4482 ft | 169 kts | 277° |
| 2026-05-06 19:01 | 37.82469 | -5.17329 | 4484 ft | 169 kts | 276° |
| 2026-05-06 19:01 | 37.82634 | -5.18794 | 4485 ft | 168 kts | 276° |
| 2026-05-06 19:02 | 37.82799 | -5.20257 | 4485 ft | 168 kts | 276° |
| 2026-05-06 19:02 | 37.82966 | -5.21721 | 4487 ft | 168 kts | 276° |
| 2026-05-06 19:02 | 37.83132 | -5.23190 | 4487 ft | 170 kts | 276° |
| 2026-05-06 19:02 | 37.83300 | -5.24680 | 4487 ft | 172 kts | 276° |
| 2026-05-06 19:03 | 37.83605 | -5.26144 | 4483 ft | 173 kts | 285° |
| 2026-05-06 19:03 | 37.83968 | -5.27599 | 4493 ft | 174 kts | 284° |
| 2026-05-06 19:03 | 37.84320 | -5.29058 | 4492 ft | 173 kts | 284° |
| 2026-05-06 19:03 | 37.84671 | -5.30521 | 4494 ft | 173 kts | 283° |
| 2026-05-06 19:04 | 37.85021 | -5.31978 | 4497 ft | 173 kts | 284° |
| 2026-05-06 19:04 | 37.85373 | -5.33441 | 4509 ft | 174 kts | 284° |
| 2026-05-06 19:04 | 37.85727 | -5.34905 | 4500 ft | 173 kts | 284° |
| 2026-05-06 19:04 | 37.86079 | -5.36366 | 4500 ft | 173 kts | 284° |
| 2026-05-06 19:05 | 37.86429 | -5.37824 | 4498 ft | 174 kts | 284° |
| 2026-05-06 19:05 | 37.86780 | -5.39285 | 4498 ft | 173 kts | 284° |
| 2026-05-06 19:05 | 37.87131 | -5.40748 | 4498 ft | 174 kts | 284° |
| 2026-05-06 19:05 | 37.87488 | -5.42214 | 4487 ft | 174 kts | 285° |
| 2026-05-06 19:06 | 37.87845 | -5.43676 | 4508 ft | 174 kts | 284° |
| 2026-05-06 19:06 | 37.88173 | -5.45143 | 4498 ft | 172 kts | 282° |
| 2026-05-06 19:06 | 37.88483 | -5.46599 | 4493 ft | 171 kts | 283° |
| 2026-05-06 19:06 | 37.88835 | -5.48036 | 4494 ft | 172 kts | 287° |
| 2026-05-06 19:07 | 37.89223 | -5.49465 | 4498 ft | 171 kts | 286° |
| 2026-05-06 19:07 | 37.89572 | -5.50914 | 4501 ft | 173 kts | 284° |
| 2026-05-06 19:07 | 37.89918 | -5.52377 | 4504 ft | 173 kts | 284° |
| 2026-05-06 19:07 | 37.90261 | -5.53823 | 4506 ft | 175 kts | 284° |
| 2026-05-06 19:08 | 37.90615 | -5.55308 | 4497 ft | 173 kts | 284° |
| 2026-05-06 19:08 | 37.90960 | -5.56748 | 4502 ft | 173 kts | 284° |
| 2026-05-06 19:08 | 37.91307 | -5.58211 | 4500 ft | 173 kts | 285° |
| 2026-05-06 19:08 | 37.91663 | -5.59671 | 4499 ft | 174 kts | 284° |
| 2026-05-06 19:09 | 37.92009 | -5.61149 | 4506 ft | 175 kts | 284° |
| 2026-05-06 19:09 | 37.92357 | -5.62627 | 4503 ft | 175 kts | 285° |
| 2026-05-06 19:09 | 37.92705 | -5.64105 | 4500 ft | 174 kts | 284° |
| 2026-05-06 19:09 | 37.93055 | -5.65570 | 4504 ft | 174 kts | 284° |
| 2026-05-06 19:10 | 37.93405 | -5.67036 | 4498 ft | 174 kts | 285° |
| 2026-05-06 19:10 | 37.93756 | -5.68508 | 4497 ft | 175 kts | 284° |
| 2026-05-06 19:10 | 37.94106 | -5.69984 | 4497 ft | 175 kts | 285° |
| 2026-05-06 19:10 | 37.94456 | -5.71463 | 4496 ft | 176 kts | 284° |
| 2026-05-06 19:11 | 37.94799 | -5.72947 | 4496 ft | 176 kts | 281° |
| 2026-05-06 19:11 | 37.95135 | -5.74442 | 4494 ft | 177 kts | 284° |
| 2026-05-06 19:11 | 37.95498 | -5.75928 | 4492 ft | 176 kts | 284° |
| 2026-05-06 19:11 | 37.95865 | -5.77410 | 4496 ft | 176 kts | 285° |
| 2026-05-06 19:12 | 37.96222 | -5.78897 | 4497 ft | 176 kts | 284° |
| 2026-05-06 19:12 | 37.96568 | -5.80389 | 4497 ft | 177 kts | 283° |
| 2026-05-06 19:12 | 37.96919 | -5.81886 | 4498 ft | 177 kts | 284° |
| 2026-05-06 19:12 | 37.97273 | -5.83386 | 4501 ft | 178 kts | 284° |
| 2026-05-06 19:13 | 37.97627 | -5.84896 | 4496 ft | 178 kts | 284° |
| 2026-05-06 19:13 | 37.97977 | -5.86392 | 4499 ft | 177 kts | 284° |
| 2026-05-06 19:13 | 37.98334 | -5.87892 | 4498 ft | 178 kts | 284° |
| 2026-05-06 19:13 | 37.98690 | -5.89397 | 4496 ft | 179 kts | 284° |
| 2026-05-06 19:14 | 37.99044 | -5.90905 | 4498 ft | 178 kts | 284° |
| 2026-05-06 19:14 | 37.99396 | -5.92404 | 4498 ft | 178 kts | 284° |
| 2026-05-06 19:14 | 37.99748 | -5.93904 | 4498 ft | 177 kts | 284° |
| 2026-05-06 19:14 | 38.00112 | -5.95400 | 4494 ft | 178 kts | 287° |
| 2026-05-06 19:15 | 38.00516 | -5.96879 | 4496 ft | 177 kts | 285° |
| 2026-05-06 19:15 | 38.00898 | -5.98363 | 4495 ft | 177 kts | 285° |
| 2026-05-06 19:15 | 38.01286 | -5.99844 | 4491 ft | 177 kts | 286° |
| 2026-05-06 19:15 | 38.01676 | -6.01318 | 4495 ft | 176 kts | 286° |
| 2026-05-06 19:16 | 38.02057 | -6.02792 | 4494 ft | 176 kts | 285° |
| 2026-05-06 19:16 | 38.02452 | -6.04266 | 4493 ft | 176 kts | 285° |
| 2026-05-06 19:16 | 38.02842 | -6.05725 | 4490 ft | 174 kts | 284° |
| 2026-05-06 19:16 | 38.03221 | -6.07176 | 4491 ft | 174 kts | 285° |
| 2026-05-06 19:17 | 38.03596 | -6.08627 | 4494 ft | 176 kts | 288° |
| 2026-05-06 19:17 | 38.03989 | -6.10101 | 4501 ft | 177 kts | 291° |
| 2026-05-06 19:17 | 38.04382 | -6.11578 | 4502 ft | 176 kts | 290° |
| 2026-05-06 19:17 | 38.04770 | -6.13054 | 4503 ft | 176 kts | 290° |
| 2026-05-06 19:18 | 38.05156 | -6.14530 | 4500 ft | 175 kts | 290° |
| 2026-05-06 19:18 | 38.05541 | -6.15993 | 4501 ft | 175 kts | 290° |
| 2026-05-06 19:18 | 38.05924 | -6.17456 | 4501 ft | 175 kts | 290° |
| 2026-05-06 19:18 | 38.06309 | -6.18920 | 4500 ft | 175 kts | 290° |
| 2026-05-06 19:19 | 38.06693 | -6.20389 | 4497 ft | 175 kts | 290° |
| 2026-05-06 19:19 | 38.07078 | -6.21853 | 4498 ft | 175 kts | 291° |
| 2026-05-06 19:19 | 38.07461 | -6.23313 | 4499 ft | 174 kts | 290° |
| 2026-05-06 19:19 | 38.07844 | -6.24775 | 4508 ft | 176 kts | 291° |
| 2026-05-06 19:20 | 38.08230 | -6.26255 | 4504 ft | 177 kts | 291° |
| 2026-05-06 19:20 | 38.08566 | -6.27754 | 4508 ft | 177 kts | 287° |
| 2026-05-06 19:20 | 38.08898 | -6.29260 | 4510 ft | 178 kts | 288° |
| 2026-05-06 19:20 | 38.09234 | -6.30759 | 4508 ft | 176 kts | 288° |
| 2026-05-06 19:21 | 38.09562 | -6.32261 | 4505 ft | 176 kts | 288° |
| 2026-05-06 19:21 | 38.09892 | -6.33766 | 4505 ft | 177 kts | 288° |
| 2026-05-06 19:21 | 38.10220 | -6.35268 | 4504 ft | 176 kts | 287° |
| 2026-05-06 19:21 | 38.10547 | -6.36760 | 4504 ft | 176 kts | 287° |
| 2026-05-06 19:22 | 38.10872 | -6.38254 | 4504 ft | 175 kts | 288° |
| 2026-05-06 19:22 | 38.11198 | -6.39750 | 4505 ft | 176 kts | 288° |
| 2026-05-06 19:22 | 38.11524 | -6.41244 | 4504 ft | 175 kts | 287° |
| 2026-05-06 19:22 | 38.11849 | -6.42738 | 4506 ft | 175 kts | 288° |
| 2026-05-06 19:23 | 38.12174 | -6.44232 | 4506 ft | 176 kts | 288° |
| 2026-05-06 19:23 | 38.12500 | -6.45730 | 4503 ft | 176 kts | 288° |
| 2026-05-06 19:23 | 38.12826 | -6.47225 | 4503 ft | 175 kts | 287° |
| 2026-05-06 19:23 | 38.13147 | -6.48712 | 4502 ft | 174 kts | 288° |
| 2026-05-06 19:24 | 38.13470 | -6.50194 | 4500 ft | 174 kts | 287° |
| 2026-05-06 19:24 | 38.13787 | -6.51653 | 4501 ft | 174 kts | 287° |
| 2026-05-06 19:24 | 38.14107 | -6.53137 | 4501 ft | 174 kts | 287° |
| 2026-05-06 19:24 | 38.14429 | -6.54620 | 4500 ft | 174 kts | 287° |
| 2026-05-06 19:25 | 38.14749 | -6.56100 | 4504 ft | 173 kts | 288° |
| 2026-05-06 19:25 | 38.15069 | -6.57578 | 4504 ft | 174 kts | 287° |
| 2026-05-06 19:25 | 38.15388 | -6.59055 | 4503 ft | 174 kts | 287° |
| 2026-05-06 19:25 | 38.15708 | -6.60533 | 4506 ft | 174 kts | 287° |
| 2026-05-06 19:26 | 38.16027 | -6.62012 | 4499 ft | 173 kts | 287° |
| 2026-05-06 19:26 | 38.16346 | -6.63491 | 4500 ft | 173 kts | 287° |
| 2026-05-06 19:26 | 38.16665 | -6.64964 | 4499 ft | 173 kts | 288° |
| 2026-05-06 19:26 | 38.17108 | -6.66384 | 4500 ft | 173 kts | 294° |
| 2026-05-06 19:27 | 38.17555 | -6.67809 | 4498 ft | 173 kts | 293° |
| 2026-05-06 19:27 | 38.17998 | -6.69232 | 4500 ft | 173 kts | 293° |
| 2026-05-06 19:27 | 38.18440 | -6.70650 | 4501 ft | 173 kts | 293° |
| 2026-05-06 19:27 | 38.18884 | -6.72072 | 4498 ft | 173 kts | 293° |
| 2026-05-06 19:28 | 38.19329 | -6.73487 | 4502 ft | 173 kts | 293° |
| 2026-05-06 19:28 | 38.19773 | -6.74909 | 4502 ft | 173 kts | 293° |
| 2026-05-06 19:28 | 38.20215 | -6.76336 | 4503 ft | 174 kts | 293° |
| 2026-05-06 19:28 | 38.20661 | -6.77762 | 4502 ft | 174 kts | 293° |
| 2026-05-06 19:29 | 38.21107 | -6.79190 | 4503 ft | 174 kts | 293° |
| 2026-05-06 19:29 | 38.21552 | -6.80617 | 4503 ft | 174 kts | 293° |
| 2026-05-06 19:29 | 38.21996 | -6.82044 | 4504 ft | 174 kts | 293° |
| 2026-05-06 19:29 | 38.22442 | -6.83474 | 4503 ft | 174 kts | 293° |
| 2026-05-06 19:30 | 38.22888 | -6.84906 | 4503 ft | 174 kts | 294° |
| 2026-05-06 19:30 | 38.23333 | -6.86329 | 4504 ft | 172 kts | 294° |
| 2026-05-06 19:30 | 38.23769 | -6.87738 | 4504 ft | 172 kts | 292° |
| 2026-05-06 19:30 | 38.24206 | -6.89151 | 4502 ft | 172 kts | 293° |
| 2026-05-06 19:31 | 38.24648 | -6.90564 | 4504 ft | 171 kts | 294° |
| 2026-05-06 19:31 | 38.25084 | -6.91971 | 4502 ft | 171 kts | 294° |
| 2026-05-06 19:31 | 38.25948 | -6.94759 | 4500 ft | 170 kts | 294° |
| 2026-05-06 19:32 | 38.26385 | -6.96163 | 4500 ft | 170 kts | 294° |
| 2026-05-06 19:32 | 38.26819 | -6.97565 | 4501 ft | 171 kts | 292° |
| 2026-05-06 19:32 | 38.27253 | -6.98973 | 4501 ft | 172 kts | 294° |
| 2026-05-06 19:32 | 38.27693 | -7.00390 | 4502 ft | 173 kts | 293° |
| 2026-05-06 19:33 | 38.28134 | -7.01815 | 4508 ft | 173 kts | 293° |
| 2026-05-06 19:33 | 38.28575 | -7.03242 | 4506 ft | 173 kts | 293° |
| 2026-05-06 19:33 | 38.28872 | -7.04203 | 4506 ft | 172 kts | 293° |
| 2026-05-06 19:33 | 38.29453 | -7.06081 | 4509 ft | 173 kts | 294° |
| 2026-05-06 19:34 | 38.29750 | -7.07046 | 4505 ft | 174 kts | 293° |
| 2026-05-06 19:34 | 38.30190 | -7.08472 | 4504 ft | 172 kts | 293° |
| 2026-05-06 19:34 | 38.30627 | -7.09889 | 4503 ft | 172 kts | 294° |
| 2026-05-06 19:34 | 38.31066 | -7.11310 | 4503 ft | 172 kts | 293° |
| 2026-05-06 19:35 | 38.31501 | -7.12721 | 4507 ft | 171 kts | 293° |
| 2026-05-06 19:35 | 38.31935 | -7.14129 | 4506 ft | 171 kts | 294° |
| 2026-05-06 19:35 | 38.32368 | -7.15540 | 4507 ft | 171 kts | 294° |
| 2026-05-06 19:35 | 38.32801 | -7.16948 | 4504 ft | 171 kts | 293° |
| 2026-05-06 19:36 | 38.33230 | -7.18341 | 4505 ft | 171 kts | 294° |
| 2026-05-06 19:36 | 38.33672 | -7.19771 | 4510 ft | 171 kts | 294° |
| 2026-05-06 19:36 | 38.34104 | -7.21181 | 4506 ft | 170 kts | 293° |
| 2026-05-06 19:36 | 38.34536 | -7.22581 | 4504 ft | 169 kts | 295° |
| 2026-05-06 19:37 | 38.34955 | -7.23967 | 4512 ft | 170 kts | 296° |
| 2026-05-06 19:37 | 38.35395 | -7.25361 | 4512 ft | 169 kts | 294° |
| 2026-05-06 19:37 | 38.35800 | -7.26767 | 4506 ft | 169 kts | 293° |
| 2026-05-06 19:37 | 38.36240 | -7.28160 | 4509 ft | 170 kts | 294° |
| 2026-05-06 19:38 | 38.36683 | -7.29561 | 4513 ft | 171 kts | 293° |
| 2026-05-06 19:38 | 38.37106 | -7.30978 | 4512 ft | 171 kts | 293° |
| 2026-05-06 19:38 | 38.37535 | -7.32381 | 4510 ft | 169 kts | 294° |
| 2026-05-06 19:38 | 38.37971 | -7.33777 | 4509 ft | 170 kts | 296° |
| 2026-05-06 19:39 | 38.38401 | -7.35172 | 4513 ft | 169 kts | 294° |
| 2026-05-06 19:39 | 38.38826 | -7.36562 | 4512 ft | 168 kts | 295° |
| 2026-05-06 19:39 | 38.39262 | -7.37941 | 4512 ft | 168 kts | 295° |
| 2026-05-06 19:39 | 38.39702 | -7.39327 | 4514 ft | 170 kts | 295° |
| 2026-05-06 19:40 | 38.40139 | -7.40720 | 4512 ft | 169 kts | 295° |
| 2026-05-06 19:40 | 38.40575 | -7.42107 | 4513 ft | 168 kts | 295° |
| 2026-05-06 19:40 | 38.41011 | -7.43494 | 4513 ft | 169 kts | 295° |
| 2026-05-06 19:40 | 38.41448 | -7.44885 | 4522 ft | 169 kts | 295° |
| 2026-05-06 19:41 | 38.41883 | -7.46278 | 4526 ft | 170 kts | 294° |
| 2026-05-06 19:41 | 38.42321 | -7.47667 | 4427 ft | 159 kts | 296° |
| 2026-05-06 19:41 | 38.42707 | -7.48882 | 4259 ft | 140 kts | 296° |
| 2026-05-06 19:41 | 38.43055 | -7.50010 | 4094 ft | 134 kts | 296° |
| 2026-05-06 19:42 | 38.43399 | -7.51108 | 3929 ft | 133 kts | 295° |
| 2026-05-06 19:42 | 38.43739 | -7.52197 | 3774 ft | 131 kts | 295° |
| 2026-05-06 19:42 | 38.44077 | -7.53272 | 3619 ft | 130 kts | 295° |
| 2026-05-06 19:42 | 38.44410 | -7.54337 | 3433 ft | 129 kts | 296° |
| 2026-05-06 19:43 | 38.44743 | -7.55394 | 3242 ft | 128 kts | 296° |
| 2026-05-06 19:43 | 38.45069 | -7.56437 | 3041 ft | 125 kts | 295° |
| 2026-05-06 19:43 | 38.45391 | -7.57464 | 2840 ft | 124 kts | 296° |
| 2026-05-06 19:43 | 38.45708 | -7.58479 | 2642 ft | 122 kts | 295° |
| 2026-05-06 19:44 | 38.46006 | -7.59445 | 2631 ft | 113 kts | 295° |
| 2026-05-06 19:44 | 38.46292 | -7.60367 | 2626 ft | 110 kts | 297° |
| 2026-05-06 19:44 | 38.46585 | -7.61282 | 2582 ft | 113 kts | 297° |
| 2026-05-06 19:44 | 38.46874 | -7.62218 | 2529 ft | 113 kts | 297° |
| 2026-05-06 19:45 | 38.47163 | -7.63146 | 2483 ft | 111 kts | 297° |
| 2026-05-06 19:45 | 38.47445 | -7.64052 | 2453 ft | 109 kts | 296° |
| 2026-05-06 19:45 | 38.47755 | -7.65043 | 2460 ft | 130 kts | 298° |
| 2026-05-06 19:45 | 38.48103 | -7.66134 | 2459 ft | 137 kts | 298° |
| 2026-05-06 19:46 | 38.48456 | -7.67269 | 2463 ft | 139 kts | 297° |
| 2026-05-06 19:46 | 38.48814 | -7.68424 | 2467 ft | 139 kts | 297° |
| 2026-05-06 19:46 | 38.49170 | -7.69568 | 2459 ft | 138 kts | 297° |
| 2026-05-06 19:46 | 38.49523 | -7.70703 | 2462 ft | 137 kts | 296° |
| 2026-05-06 19:47 | 38.49875 | -7.71834 | 2456 ft | 137 kts | 296° |
| 2026-05-06 19:47 | 38.50226 | -7.72962 | 2455 ft | 137 kts | 296° |
| 2026-05-06 19:47 | 38.50581 | -7.74105 | 2459 ft | 142 kts | 296° |
| 2026-05-06 19:47 | 38.50949 | -7.75287 | 2460 ft | 145 kts | 296° |
| 2026-05-06 19:48 | 38.51323 | -7.76490 | 2462 ft | 146 kts | 296° |
| 2026-05-06 19:48 | 38.51701 | -7.77705 | 2465 ft | 148 kts | 296° |
| 2026-05-06 19:48 | 38.52081 | -7.78929 | 2460 ft | 149 kts | 296° |
| 2026-05-06 19:48 | 38.52461 | -7.80157 | 2461 ft | 149 kts | 296° |
| 2026-05-06 19:49 | 38.52722 | -7.81365 | 2451 ft | 137 kts | 279° |
| 2026-05-06 19:49 | 38.52732 | -7.82542 | 2445 ft | 129 kts | 280° |
| 2026-05-06 19:49 | 38.52766 | -7.83667 | 2447 ft | 126 kts | 280° |
| 2026-05-06 19:49 | 38.52800 | -7.84779 | 2446 ft | 125 kts | 280° |
| 2026-05-06 19:50 | 38.52832 | -7.85881 | 2447 ft | 123 kts | 279° |
| 2026-05-06 19:50 | 38.52863 | -7.86974 | 2445 ft | 123 kts | 280° |
| 2026-05-06 19:50 | 38.52893 | -7.88058 | 2446 ft | 122 kts | 280° |
| 2026-05-06 19:50 | 38.52923 | -7.89138 | 2446 ft | 122 kts | 279° |
| 2026-05-06 19:51 | 38.52954 | -7.90223 | 2452 ft | 122 kts | 279° |
| 2026-05-06 19:51 | 38.52983 | -7.91300 | 2454 ft | 121 kts | 279° |
| 2026-05-06 19:51 | 38.53012 | -7.92375 | 2455 ft | 121 kts | 279° |
| 2026-05-06 19:51 | 38.53042 | -7.93455 | 2454 ft | 122 kts | 280° |
| 2026-05-06 19:52 | 38.53071 | -7.94527 | 2455 ft | 120 kts | 280° |
| 2026-05-06 19:52 | 38.53100 | -7.95593 | 2457 ft | 120 kts | 281° |
| 2026-05-06 19:52 | 38.53129 | -7.96665 | 2456 ft | 121 kts | 281° |
| 2026-05-06 19:52 | 38.53157 | -7.97722 | 2454 ft | 120 kts | 280° |
| 2026-05-06 19:53 | 38.53186 | -7.98796 | 2455 ft | 119 kts | 278° |
| 2026-05-06 19:53 | 38.53210 | -7.99843 | 2455 ft | 118 kts | 279° |
| 2026-05-06 19:53 | 38.53242 | -8.00888 | 2454 ft | 118 kts | 279° |
| 2026-05-06 19:53 | 38.53271 | -8.01936 | 2455 ft | 119 kts | 279° |
| 2026-05-06 19:54 | 38.53247 | -8.03009 | 2458 ft | 122 kts | 275° |
| 2026-05-06 19:54 | 38.53229 | -8.04089 | 2464 ft | 124 kts | 278° |
| 2026-05-06 19:54 | 38.53208 | -8.05185 | 2467 ft | 123 kts | 277° |
| 2026-05-06 19:54 | 38.53188 | -8.06284 | 2471 ft | 124 kts | 276° |
| 2026-05-06 19:55 | 38.53162 | -8.07378 | 2469 ft | 122 kts | 276° |
| 2026-05-06 19:55 | 38.53135 | -8.08440 | 2472 ft | 118 kts | 276° |
| 2026-05-06 19:55 | 38.53115 | -8.09508 | 2469 ft | 123 kts | 275° |
| 2026-05-06 19:55 | 38.53091 | -8.10615 | 2471 ft | 125 kts | 277° |
| 2026-05-06 19:56 | 38.53066 | -8.11722 | 2473 ft | 124 kts | 277° |
| 2026-05-06 19:56 | 38.53038 | -8.12816 | 2470 ft | 122 kts | 277° |
| 2026-05-06 19:56 | 38.53016 | -8.13929 | 2476 ft | 130 kts | 277° |
| 2026-05-06 19:56 | 38.52993 | -8.15106 | 2476 ft | 135 kts | 275° |
| 2026-05-06 19:57 | 38.52963 | -8.16312 | 2479 ft | 137 kts | 275° |
| 2026-05-06 19:57 | 38.52937 | -8.17532 | 2477 ft | 138 kts | 275° |
| 2026-05-06 19:57 | 38.52907 | -8.18749 | 2473 ft | 136 kts | 275° |
| 2026-05-06 19:57 | 38.52878 | -8.19950 | 2481 ft | 135 kts | 276° |
| 2026-05-06 19:58 | 38.52850 | -8.21148 | 2482 ft | 135 kts | 276° |
| 2026-05-06 19:58 | 38.52822 | -8.22349 | 2486 ft | 135 kts | 276° |
| 2026-05-06 19:58 | 38.52795 | -8.23546 | 2488 ft | 135 kts | 276° |
| 2026-05-06 19:58 | 38.52767 | -8.24760 | 2485 ft | 137 kts | 276° |
| 2026-05-06 19:59 | 38.52738 | -8.25978 | 2489 ft | 138 kts | 276° |
| 2026-05-06 19:59 | 38.52709 | -8.27200 | 2487 ft | 138 kts | 276° |
| 2026-05-06 19:59 | 38.52679 | -8.28427 | 2488 ft | 139 kts | 277° |
| 2026-05-06 19:59 | 38.52650 | -8.29657 | 2482 ft | 138 kts | 277° |
| 2026-05-06 20:00 | 38.52620 | -8.30873 | 2483 ft | 137 kts | 276° |
| 2026-05-06 20:00 | 38.52591 | -8.32093 | 2484 ft | 137 kts | 276° |
| 2026-05-06 20:00 | 38.52562 | -8.33312 | 2483 ft | 137 kts | 276° |
| 2026-05-06 20:00 | 38.52533 | -8.34517 | 2475 ft | 138 kts | 274° |
| 2026-05-06 20:01 | 38.52501 | -8.35757 | 2484 ft | 138 kts | 275° |
| 2026-05-06 20:01 | 38.52470 | -8.36985 | 2489 ft | 141 kts | 275° |
| 2026-05-06 20:01 | 38.52441 | -8.38233 | 2490 ft | 140 kts | 276° |
| 2026-05-06 20:01 | 38.52410 | -8.39502 | 2485 ft | 141 kts | 275° |
| 2026-05-06 20:02 | 38.52377 | -8.40747 | 2487 ft | 140 kts | 275° |
| 2026-05-06 20:02 | 38.52347 | -8.41984 | 2485 ft | 139 kts | 275° |
| 2026-05-06 20:02 | 38.52316 | -8.43202 | 2484 ft | 138 kts | 275° |
| 2026-05-06 20:02 | 38.52286 | -8.44442 | 2488 ft | 138 kts | 275° |
| 2026-05-06 20:03 | 38.52255 | -8.45675 | 2483 ft | 139 kts | 275° |
| 2026-05-06 20:03 | 38.52223 | -8.46882 | 2484 ft | 138 kts | 275° |
| 2026-05-06 20:03 | 38.52192 | -8.48115 | 2484 ft | 140 kts | 274° |
| 2026-05-06 20:03 | 38.52156 | -8.49363 | 2491 ft | 140 kts | 275° |
| 2026-05-06 20:04 | 38.52129 | -8.50622 | 2496 ft | 140 kts | 275° |
| 2026-05-06 20:04 | 38.52098 | -8.51857 | 2499 ft | 141 kts | 274° |
| 2026-05-06 20:04 | 38.52064 | -8.53099 | 2500 ft | 139 kts | 274° |
| 2026-05-06 20:04 | 38.52031 | -8.54334 | 2498 ft | 139 kts | 274° |
| 2026-05-06 20:05 | 38.51998 | -8.55553 | 2489 ft | 136 kts | 275° |
| 2026-05-06 20:05 | 38.51966 | -8.56768 | 2491 ft | 138 kts | 275° |
| 2026-05-06 20:05 | 38.51935 | -8.58001 | 2487 ft | 139 kts | 275° |
| 2026-05-06 20:05 | 38.51903 | -8.59247 | 2490 ft | 141 kts | 275° |
| 2026-05-06 20:06 | 38.51871 | -8.60497 | 2499 ft | 140 kts | 275° |
| 2026-05-06 20:06 | 38.51836 | -8.61738 | 2500 ft | 140 kts | 275° |
| 2026-05-06 20:06 | 38.51804 | -8.62980 | 2496 ft | 140 kts | 275° |
| 2026-05-06 20:06 | 38.51769 | -8.64216 | 2496 ft | 140 kts | 275° |
| 2026-05-06 20:07 | 38.51736 | -8.65465 | 2501 ft | 141 kts | 275° |
| 2026-05-06 20:07 | 38.51702 | -8.66710 | 2500 ft | 141 kts | 275° |
| 2026-05-06 20:07 | 38.51668 | -8.67966 | 2501 ft | 143 kts | 275° |
| 2026-05-06 20:07 | 38.51633 | -8.69236 | 2496 ft | 143 kts | 275° |
| 2026-05-06 20:08 | 38.51617 | -8.70496 | 2499 ft | 140 kts | 278° |
| 2026-05-06 20:08 | 38.51616 | -8.71739 | 2488 ft | 140 kts | 275° |
| 2026-05-06 20:08 | 38.51601 | -8.72984 | 2493 ft | 141 kts | 277° |
| 2026-05-06 20:08 | 38.51591 | -8.74250 | 2493 ft | 143 kts | 276° |
| 2026-05-06 20:09 | 38.51583 | -8.75535 | 2499 ft | 146 kts | 276° |
| 2026-05-06 20:09 | 38.51578 | -8.76837 | 2502 ft | 147 kts | 276° |
| 2026-05-06 20:09 | 38.51569 | -8.78151 | 2505 ft | 149 kts | 277° |
| 2026-05-06 20:09 | 38.51562 | -8.79462 | 2513 ft | 147 kts | 277° |
| 2026-05-06 20:10 | 38.51554 | -8.80764 | 2513 ft | 147 kts | 277° |
| 2026-05-06 20:10 | 38.51546 | -8.82061 | 2510 ft | 145 kts | 276° |
| 2026-05-06 20:10 | 38.51539 | -8.83352 | 2509 ft | 146 kts | 276° |
| 2026-05-06 20:10 | 38.51530 | -8.84647 | 2508 ft | 146 kts | 275° |
| 2026-05-06 20:11 | 38.51522 | -8.85943 | 2508 ft | 147 kts | 277° |
| 2026-05-06 20:11 | 38.51513 | -8.87242 | 2505 ft | 146 kts | 276° |
| 2026-05-06 20:11 | 38.51505 | -8.88530 | 2508 ft | 145 kts | 276° |
| 2026-05-06 20:11 | 38.51593 | -8.89799 | 2503 ft | 141 kts | 291° |
| 2026-05-06 20:12 | 38.51841 | -8.91011 | 2505 ft | 141 kts | 290° |
| 2026-05-06 20:12 | 38.52070 | -8.92232 | 2510 ft | 143 kts | 290° |
| 2026-05-06 20:12 | 38.52309 | -8.93466 | 2509 ft | 143 kts | 290° |
| 2026-05-06 20:12 | 38.52543 | -8.94703 | 2509 ft | 143 kts | 290° |
| 2026-05-06 20:13 | 38.52774 | -8.95929 | 2516 ft | 141 kts | 290° |
| 2026-05-06 20:13 | 38.53005 | -8.97148 | 2516 ft | 141 kts | 290° |
| 2026-05-06 20:13 | 38.53231 | -8.98355 | 2515 ft | 139 kts | 290° |
| 2026-05-06 20:13 | 38.53460 | -8.99559 | 2513 ft | 140 kts | 290° |
| 2026-05-06 20:14 | 38.53689 | -9.00764 | 2510 ft | 140 kts | 290° |
| 2026-05-06 20:14 | 38.53920 | -9.01986 | 2511 ft | 142 kts | 290° |
| 2026-05-06 20:14 | 38.54153 | -9.03216 | 2512 ft | 143 kts | 290° |
| 2026-05-06 20:14 | 38.54384 | -9.04449 | 2514 ft | 142 kts | 290° |
| 2026-05-06 20:15 | 38.54614 | -9.05669 | 2519 ft | 141 kts | 290° |
| 2026-05-06 20:15 | 38.54841 | -9.06882 | 2520 ft | 140 kts | 289° |
| 2026-05-06 20:15 | 38.54828 | -9.08155 | 2517 ft | 146 kts | 271° |
| 2026-05-06 20:15 | 38.54727 | -9.09442 | 2516 ft | 145 kts | 272° |
| 2026-05-06 20:16 | 38.54644 | -9.10724 | 2514 ft | 144 kts | 273° |
| 2026-05-06 20:16 | 38.54562 | -9.12000 | 2508 ft | 143 kts | 272° |
| 2026-05-06 20:16 | 38.54520 | -9.13250 | 2508 ft | 139 kts | 281° |
| 2026-05-06 20:16 | 38.54618 | -9.14488 | 2511 ft | 142 kts | 284° |
| 2026-05-06 20:17 | 38.54726 | -9.15743 | 2513 ft | 142 kts | 284° |
| 2026-05-06 20:17 | 38.54890 | -9.16979 | 2515 ft | 141 kts | 287° |
| 2026-05-06 20:17 | 38.55009 | -9.17800 | 2515 ft | 142 kts | 287° |
| 2026-05-06 20:17 | 38.55189 | -9.19037 | 2519 ft | 142 kts | 287° |
| 2026-05-06 20:18 | 38.55369 | -9.20266 | 2381 ft | 136 kts | 287° |
| 2026-05-06 20:18 | 38.55533 | -9.21424 | 2190 ft | 130 kts | 287° |
| 2026-05-06 20:18 | 38.55676 | -9.22552 | 2025 ft | 126 kts | 288° |
| 2026-05-06 20:18 | 38.55845 | -9.23629 | 2018 ft | 124 kts | 293° |
| 2026-05-06 20:19 | 38.56225 | -9.24593 | 2019 ft | 122 kts | 303° |
| 2026-05-06 20:19 | 38.56607 | -9.25560 | 2019 ft | 121 kts | 303° |
| 2026-05-06 20:19 | 38.56989 | -9.26518 | 2020 ft | 121 kts | 303° |
| 2026-05-06 20:19 | 38.57372 | -9.27476 | 2025 ft | 121 kts | 303° |
| 2026-05-06 20:20 | 38.57809 | -9.28388 | 2023 ft | 119 kts | 314° |
| 2026-05-06 20:20 | 38.58383 | -9.29111 | 2023 ft | 116 kts | 325° |
| 2026-05-06 20:20 | 38.59100 | -9.29544 | 2019 ft | 114 kts | 338° |
| 2026-05-06 20:20 | 38.59826 | -9.29917 | 2017 ft | 111 kts | 340° |
| 2026-05-06 20:21 | 38.60550 | -9.30249 | 2015 ft | 110 kts | 341° |
| 2026-05-06 20:21 | 38.61291 | -9.30572 | 1899 ft | 115 kts | 342° |
| 2026-05-06 20:21 | 38.62027 | -9.30885 | 1865 ft | 113 kts | 342° |
| 2026-05-06 20:21 | 38.62789 | -9.31202 | 1717 ft | 117 kts | 341° |
| 2026-05-06 20:22 | 38.63524 | -9.31648 | 1503 ft | 113 kts | 331° |
| 2026-05-06 20:22 | 38.64150 | -9.32119 | 1430 ft | 100 kts | 332° |
| 2026-05-06 20:22 | 38.64733 | -9.32552 | 1346 ft | 97 kts | 334° |
| 2026-05-06 20:22 | 38.65340 | -9.32905 | 1311 ft | 96 kts | 339° |
| 2026-05-06 20:23 | 38.65971 | -9.33175 | 1240 ft | 94 kts | 340° |
| 2026-05-06 20:23 | 38.66556 | -9.33448 | 1159 ft | 86 kts | 342° |
| 2026-05-06 20:23 | 38.67133 | -9.33636 | 1072 ft | 86 kts | 347° |
| 2026-05-06 20:23 | 38.67731 | -9.33821 | 931 ft | 90 kts | 345° |
| 2026-05-06 20:24 | 38.68288 | -9.34049 | 823 ft | 78 kts | 346° |
| 2026-05-06 20:24 | 38.68812 | -9.34232 | 768 ft | 79 kts | 349° |
| 2026-05-06 20:24 | 38.69339 | -9.34426 | 718 ft | 79 kts | 347° |
| 2026-05-06 20:24 | 38.69861 | -9.34556 | 691 ft | 76 kts | 350° |
| 2026-05-06 20:25 | 38.70369 | -9.34765 | 676 ft | 77 kts | 343° |
| 2026-05-06 20:25 | 38.70877 | -9.34956 | 584 ft | 75 kts | 348° |
| 2026-05-06 20:25 | 38.71372 | -9.35137 | 432 ft | 74 kts | 345° |
| 2026-05-06 20:25 | 38.71868 | -9.35321 | 313 ft | 75 kts | 338° |
| 2026-05-06 20:26 | 38.72335 | -9.35459 | 319 ft | 67 kts | 342° |
| 2026-05-06 20:26 | 38.72760 | -9.35628 | 316 ft | 60 kts | 344° |
| 2026-05-06 20:26 | 38.72919 | -9.35680 | 328 ft | 3 kts | 334° |
| 2026-05-06 20:26 | 38.73016 | -9.35716 | 331 ft | 22 kts | 334° |
| 2026-05-06 20:27 | 38.73145 | -9.35761 | 336 ft | 20 kts | 343° |
| 2026-05-06 20:27 | 38.73164 | -9.35702 | 335 ft | 28 kts | 172° |
| 2026-05-06 20:27 | 38.73003 | -9.35649 | 330 ft | 14 kts | 165° |
| 2026-05-06 20:27 | 38.72917 | -9.35616 | 326 ft | 12 kts | 162° |
| 2026-05-06 20:28 | 38.72839 | -9.35588 | 321 ft | 11 kts | 166° |
| 2026-05-06 20:28 | 38.72769 | -9.35565 | 316 ft | 9 kts | 166° |
| 2026-05-06 20:28 | 38.72715 | -9.35544 | 313 ft | 10 kts | 163° |
| 2026-05-06 20:28 | 38.72660 | -9.35511 | 311 ft | 7 kts | 153° |
| 2026-05-06 20:29 | 38.72620 | -9.35487 | 309 ft | 6 kts | 155° |
| 2026-05-06 20:29 | 38.72581 | -9.35466 | 307 ft | 7 kts | 162° |
| 2026-05-06 20:29 | 38.72566 | -9.35460 | 306 ft | 0 kts | 161° |